sensor_id;sensor_type;location;lat;lon;timestamp;P1;durP1;ratioP1;P2;durP2;ratioP2
67798;SDS011;54596;43.216;27.904;2022-10-04T00:01:50;6.82;;;2.80;;
67798;SDS011;54596;43.216;27.904;2022-10-04T00:07:02;9.55;;;3.20;;
67798;SDS011;54596;43.216;27.904;2022-10-04T00:12:21;8.20;;;3.58;;
67798;SDS011;54596;43.216;27.904;2022-10-04T00:14:56;8.38;;;3.45;;
67798;SDS011;54596;43.216;27.904;2022-10-04T00:17:28;12.38;;;3.70;;
67798;SDS011;54596;43.216;27.904;2022-10-04T00:20:02;7.97;;;3.70;;
67798;SDS011;54596;43.216;27.904;2022-10-04T00:25:49;8.95;;;4.20;;
67798;SDS011;54596;43.216;27.904;2022-10-04T00:30:54;7.57;;;3.53;;
67798;SDS011;54596;43.216;27.904;2022-10-04T00:33:42;8.60;;;3.60;;
67798;SDS011;54596;43.216;27.904;2022-10-04T00:44:55;8.40;;;2.80;;
67798;SDS011;54596;43.216;27.904;2022-10-04T00:50:14;5.38;;;2.45;;
67798;SDS011;54596;43.216;27.904;2022-10-04T00:52:44;7.45;;;2.60;;
67798;SDS011;54596;43.216;27.904;2022-10-04T00:55:36;6.72;;;2.45;;
67798;SDS011;54596;43.216;27.904;2022-10-04T00:58:33;5.82;;;2.40;;
67798;SDS011;54596;43.216;27.904;2022-10-04T01:01:01;8.50;;;2.58;;
67798;SDS011;54596;43.216;27.904;2022-10-04T01:03:29;6.20;;;2.50;;
67798;SDS011;54596;43.216;27.904;2022-10-04T01:05:59;5.90;;;2.33;;
67798;SDS011;54596;43.216;27.904;2022-10-04T01:08:34;6.78;;;2.83;;
67798;SDS011;54596;43.216;27.904;2022-10-04T01:11:05;6.93;;;2.58;;
67798;SDS011;54596;43.216;27.904;2022-10-04T01:14:05;7.65;;;2.90;;
67798;SDS011;54596;43.216;27.904;2022-10-04T01:16:33;7.38;;;2.45;;
67798;SDS011;54596;43.216;27.904;2022-10-04T01:22:10;8.43;;;2.53;;
67798;SDS011;54596;43.216;27.904;2022-10-04T01:24:39;5.97;;;2.20;;
67798;SDS011;54596;43.216;27.904;2022-10-04T01:29:59;9.02;;;3.30;;
67798;SDS011;54596;43.216;27.904;2022-10-04T01:32:25;8.90;;;3.72;;
67798;SDS011;54596;43.216;27.904;2022-10-04T01:34:51;8.57;;;3.90;;
67798;SDS011;54596;43.216;27.904;2022-10-04T01:37:17;9.57;;;3.60;;
67798;SDS011;54596;43.216;27.904;2022-10-04T01:39:42;7.60;;;3.13;;
67798;SDS011;54596;43.216;27.904;2022-10-04T01:42:15;10.52;;;3.50;;
67798;SDS011;54596;43.216;27.904;2022-10-04T01:44:50;8.20;;;3.42;;
67798;SDS011;54596;43.216;27.904;2022-10-04T01:47:25;9.35;;;2.92;;
67798;SDS011;54596;43.216;27.904;2022-10-04T01:50:03;8.00;;;2.97;;
67798;SDS011;54596;43.216;27.904;2022-10-04T01:52:38;9.10;;;3.67;;
67798;SDS011;54596;43.216;27.904;2022-10-04T01:57:38;9.27;;;3.92;;
67798;SDS011;54596;43.216;27.904;2022-10-04T02:00:09;7.65;;;2.80;;
67798;SDS011;54596;43.216;27.904;2022-10-04T02:02:42;9.27;;;2.70;;
67798;SDS011;54596;43.216;27.904;2022-10-04T02:05:10;7.28;;;2.50;;
67798;SDS011;54596;43.216;27.904;2022-10-04T02:07:38;7.65;;;2.38;;
67798;SDS011;54596;43.216;27.904;2022-10-04T02:10:07;7.63;;;2.20;;
67798;SDS011;54596;43.216;27.904;2022-10-04T02:12:37;7.90;;;2.50;;
67798;SDS011;54596;43.216;27.904;2022-10-04T02:15:09;9.57;;;2.60;;
67798;SDS011;54596;43.216;27.904;2022-10-04T02:17:40;10.73;;;2.67;;
67798;SDS011;54596;43.216;27.904;2022-10-04T02:20:25;7.65;;;2.70;;
67798;SDS011;54596;43.216;27.904;2022-10-04T02:22:55;9.10;;;4.30;;
67798;SDS011;54596;43.216;27.904;2022-10-04T02:25:26;10.40;;;4.38;;
67798;SDS011;54596;43.216;27.904;2022-10-04T02:27:52;10.65;;;3.47;;
67798;SDS011;54596;43.216;27.904;2022-10-04T02:30:19;11.93;;;4.18;;
67798;SDS011;54596;43.216;27.904;2022-10-04T02:32:45;8.48;;;3.25;;
67798;SDS011;54596;43.216;27.904;2022-10-04T02:35:30;8.88;;;3.88;;
67798;SDS011;54596;43.216;27.904;2022-10-04T02:40:45;8.25;;;3.20;;
67798;SDS011;54596;43.216;27.904;2022-10-04T02:43:20;8.88;;;2.80;;
67798;SDS011;54596;43.216;27.904;2022-10-04T02:45:51;8.02;;;2.50;;
67798;SDS011;54596;43.216;27.904;2022-10-04T02:48:33;7.72;;;2.35;;
67798;SDS011;54596;43.216;27.904;2022-10-04T02:51:51;8.93;;;2.50;;
67798;SDS011;54596;43.216;27.904;2022-10-04T02:54:27;8.82;;;2.65;;
67798;SDS011;54596;43.216;27.904;2022-10-04T02:57:02;9.40;;;2.50;;
67798;SDS011;54596;43.216;27.904;2022-10-04T02:59:29;8.73;;;2.40;;
67798;SDS011;54596;43.216;27.904;2022-10-04T03:01:57;7.05;;;2.50;;
67798;SDS011;54596;43.216;27.904;2022-10-04T03:04:28;8.32;;;2.60;;
67798;SDS011;54596;43.216;27.904;2022-10-04T03:06:56;8.65;;;2.80;;
67798;SDS011;54596;43.216;27.904;2022-10-04T03:09:26;7.38;;;2.40;;
67798;SDS011;54596;43.216;27.904;2022-10-04T03:11:52;10.73;;;2.95;;
67798;SDS011;54596;43.216;27.904;2022-10-04T03:14:22;8.95;;;2.80;;
67798;SDS011;54596;43.216;27.904;2022-10-04T03:16:51;8.88;;;3.00;;
67798;SDS011;54596;43.216;27.904;2022-10-04T03:19:21;9.45;;;2.70;;
67798;SDS011;54596;43.216;27.904;2022-10-04T03:21:48;10.07;;;2.75;;
67798;SDS011;54596;43.216;27.904;2022-10-04T03:24:19;8.27;;;2.70;;
67798;SDS011;54596;43.216;27.904;2022-10-04T03:26:52;8.48;;;2.70;;
67798;SDS011;54596;43.216;27.904;2022-10-04T03:29:21;9.38;;;2.55;;
67798;SDS011;54596;43.216;27.904;2022-10-04T03:31:51;11.75;;;3.40;;
67798;SDS011;54596;43.216;27.904;2022-10-04T03:36:51;9.55;;;2.55;;
67798;SDS011;54596;43.216;27.904;2022-10-04T03:39:41;10.98;;;3.10;;
67798;SDS011;54596;43.216;27.904;2022-10-04T03:42:17;8.57;;;3.03;;
67798;SDS011;54596;43.216;27.904;2022-10-04T03:44:47;11.27;;;3.85;;
67798;SDS011;54596;43.216;27.904;2022-10-04T03:47:25;10.93;;;3.85;;
67798;SDS011;54596;43.216;27.904;2022-10-04T03:49:54;14.13;;;5.65;;
67798;SDS011;54596;43.216;27.904;2022-10-04T03:52:26;15.40;;;6.75;;
67798;SDS011;54596;43.216;27.904;2022-10-04T03:54:57;13.75;;;6.03;;
67798;SDS011;54596;43.216;27.904;2022-10-04T03:57:26;14.20;;;4.75;;
67798;SDS011;54596;43.216;27.904;2022-10-04T03:59:53;13.23;;;4.85;;
67798;SDS011;54596;43.216;27.904;2022-10-04T04:02:30;12.52;;;5.28;;
67798;SDS011;54596;43.216;27.904;2022-10-04T04:08:11;12.73;;;4.03;;
67798;SDS011;54596;43.216;27.904;2022-10-04T04:10:42;11.98;;;4.40;;
67798;SDS011;54596;43.216;27.904;2022-10-04T04:13:35;11.73;;;4.22;;
67798;SDS011;54596;43.216;27.904;2022-10-04T04:16:13;13.90;;;4.80;;
67798;SDS011;54596;43.216;27.904;2022-10-04T04:18:40;15.38;;;4.88;;
67798;SDS011;54596;43.216;27.904;2022-10-04T04:21:08;14.38;;;5.85;;
67798;SDS011;54596;43.216;27.904;2022-10-04T04:23:45;14.45;;;4.88;;
67798;SDS011;54596;43.216;27.904;2022-10-04T04:31:30;19.27;;;6.05;;
67798;SDS011;54596;43.216;27.904;2022-10-04T04:34:00;13.80;;;4.80;;
67798;SDS011;54596;43.216;27.904;2022-10-04T04:36:29;14.77;;;4.80;;
67798;SDS011;54596;43.216;27.904;2022-10-04T04:39:21;16.83;;;4.78;;
67798;SDS011;54596;43.216;27.904;2022-10-04T04:42:15;14.70;;;4.53;;
67798;SDS011;54596;43.216;27.904;2022-10-04T04:44:49;14.65;;;4.88;;
67798;SDS011;54596;43.216;27.904;2022-10-04T04:50:05;21.50;;;9.10;;
67798;SDS011;54596;43.216;27.904;2022-10-04T04:52:35;14.90;;;6.10;;
67798;SDS011;54596;43.216;27.904;2022-10-04T04:55:02;16.08;;;7.43;;
67798;SDS011;54596;43.216;27.904;2022-10-04T04:57:28;21.25;;;6.03;;
67798;SDS011;54596;43.216;27.904;2022-10-04T04:59:55;12.52;;;6.13;;
67798;SDS011;54596;43.216;27.904;2022-10-04T05:05:09;20.17;;;9.20;;
67798;SDS011;54596;43.216;27.904;2022-10-04T05:07:42;16.38;;;8.07;;
67798;SDS011;54596;43.216;27.904;2022-10-04T05:10:21;13.63;;;6.07;;
67798;SDS011;54596;43.216;27.904;2022-10-04T05:12:47;17.92;;;7.88;;
67798;SDS011;54596;43.216;27.904;2022-10-04T05:15:13;17.15;;;5.28;;
67798;SDS011;54596;43.216;27.904;2022-10-04T05:17:39;18.95;;;8.15;;
67798;SDS011;54596;43.216;27.904;2022-10-04T05:20:04;20.50;;;5.88;;
67798;SDS011;54596;43.216;27.904;2022-10-04T05:22:30;22.40;;;5.38;;
67798;SDS011;54596;43.216;27.904;2022-10-04T05:24:57;23.92;;;10.40;;
67798;SDS011;54596;43.216;27.904;2022-10-04T05:27:34;16.80;;;6.05;;
67798;SDS011;54596;43.216;27.904;2022-10-04T05:30:22;17.15;;;6.78;;
67798;SDS011;54596;43.216;27.904;2022-10-04T05:32:59;13.82;;;4.88;;
67798;SDS011;54596;43.216;27.904;2022-10-04T05:44:35;13.48;;;4.20;;
67798;SDS011;54596;43.216;27.904;2022-10-04T05:47:10;9.55;;;2.90;;
67798;SDS011;54596;43.216;27.904;2022-10-04T05:49:42;10.75;;;3.25;;
67798;SDS011;54596;43.216;27.904;2022-10-04T05:52:29;14.60;;;3.72;;
67798;SDS011;54596;43.216;27.904;2022-10-04T05:55:33;10.13;;;3.50;;
67798;SDS011;54596;43.216;27.904;2022-10-04T06:00:44;11.73;;;3.25;;
67798;SDS011;54596;43.216;27.904;2022-10-04T06:03:26;12.90;;;2.67;;
67798;SDS011;54596;43.216;27.904;2022-10-04T06:09:12;10.13;;;3.20;;
67798;SDS011;54596;43.216;27.904;2022-10-04T06:20:57;12.55;;;3.38;;
67798;SDS011;54596;43.216;27.904;2022-10-04T06:23:50;9.73;;;3.50;;
67798;SDS011;54596;43.216;27.904;2022-10-04T06:26:27;13.38;;;4.25;;
67798;SDS011;54596;43.216;27.904;2022-10-04T06:29:00;15.35;;;3.72;;
67798;SDS011;54596;43.216;27.904;2022-10-04T06:48:39;12.07;;;3.72;;
67798;SDS011;54596;43.216;27.904;2022-10-04T07:05:43;17.35;;;5.63;;
67798;SDS011;54596;43.216;27.904;2022-10-04T07:13:56;10.55;;;3.40;;
67798;SDS011;54596;43.216;27.904;2022-10-04T07:16:39;7.88;;;2.78;;
67798;SDS011;54596;43.216;27.904;2022-10-04T07:19:10;9.32;;;3.47;;
67798;SDS011;54596;43.216;27.904;2022-10-04T07:21:51;7.80;;;2.10;;
67798;SDS011;54596;43.216;27.904;2022-10-04T07:30:11;5.13;;;1.90;;
67798;SDS011;54596;43.216;27.904;2022-10-04T07:32:46;6.97;;;2.10;;
67798;SDS011;54596;43.216;27.904;2022-10-04T07:35:59;7.78;;;2.28;;
67798;SDS011;54596;43.216;27.904;2022-10-04T07:40:38;6.03;;;1.80;;
67798;SDS011;54596;43.216;27.904;2022-10-04T07:43:19;7.07;;;2.13;;
67798;SDS011;54596;43.216;27.904;2022-10-04T07:45:49;6.68;;;2.30;;
67798;SDS011;54596;43.216;27.904;2022-10-04T07:48:16;5.20;;;2.10;;
67798;SDS011;54596;43.216;27.904;2022-10-04T07:53:45;6.65;;;2.50;;
67798;SDS011;54596;43.216;27.904;2022-10-04T07:56:34;8.07;;;2.40;;
67798;SDS011;54596;43.216;27.904;2022-10-04T08:12:47;6.80;;;2.30;;
67798;SDS011;54596;43.216;27.904;2022-10-04T08:15:22;3.88;;;1.83;;
67798;SDS011;54596;43.216;27.904;2022-10-04T08:35:33;7.78;;;2.90;;
67798;SDS011;54596;43.216;27.904;2022-10-04T09:00:26;5.28;;;1.70;;
67798;SDS011;54596;43.216;27.904;2022-10-04T09:40:38;5.47;;;1.90;;
67798;SDS011;54596;43.216;27.904;2022-10-04T09:51:42;6.13;;;1.80;;
67798;SDS011;54596;43.216;27.904;2022-10-04T10:00:18;4.20;;;1.98;;
67798;SDS011;54596;43.216;27.904;2022-10-04T10:14:33;5.88;;;2.00;;
67798;SDS011;54596;43.216;27.904;2022-10-04T10:22:57;6.22;;;2.20;;
67798;SDS011;54596;43.216;27.904;2022-10-04T10:48:15;5.03;;;2.00;;
67798;SDS011;54596;43.216;27.904;2022-10-04T10:56:41;9.52;;;3.10;;
67798;SDS011;54596;43.216;27.904;2022-10-04T10:59:41;10.32;;;3.08;;
67798;SDS011;54596;43.216;27.904;2022-10-04T11:27:34;5.43;;;2.10;;
67798;SDS011;54596;43.216;27.904;2022-10-04T11:44:03;10.20;;;2.40;;
67798;SDS011;54596;43.216;27.904;2022-10-04T11:52:08;9.25;;;2.40;;
67798;SDS011;54596;43.216;27.904;2022-10-04T12:00:23;4.88;;;1.92;;
67798;SDS011;54596;43.216;27.904;2022-10-04T12:03:13;11.05;;;3.72;;
67798;SDS011;54596;43.216;27.904;2022-10-04T12:29:00;8.20;;;2.10;;
67798;SDS011;54596;43.216;27.904;2022-10-04T12:31:48;5.00;;;1.90;;
67798;SDS011;54596;43.216;27.904;2022-10-04T12:37:15;7.32;;;2.88;;
67798;SDS011;54596;43.216;27.904;2022-10-04T12:42:57;10.68;;;3.60;;
67798;SDS011;54596;43.216;27.904;2022-10-04T12:45:45;9.10;;;3.33;;
67798;SDS011;54596;43.216;27.904;2022-10-04T12:48:21;9.55;;;2.30;;
67798;SDS011;54596;43.216;27.904;2022-10-04T12:51:18;5.43;;;2.10;;
67798;SDS011;54596;43.216;27.904;2022-10-04T13:04:49;7.75;;;2.78;;
67798;SDS011;54596;43.216;27.904;2022-10-04T13:07:40;5.82;;;2.40;;
67798;SDS011;54596;43.216;27.904;2022-10-04T13:30:58;8.77;;;2.95;;
67798;SDS011;54596;43.216;27.904;2022-10-04T13:36:52;5.63;;;2.08;;
67798;SDS011;54596;43.216;27.904;2022-10-04T13:39:30;6.78;;;2.30;;
67798;SDS011;54596;43.216;27.904;2022-10-04T13:42:30;7.28;;;2.58;;
67798;SDS011;54596;43.216;27.904;2022-10-04T13:48:03;7.05;;;2.28;;
67798;SDS011;54596;43.216;27.904;2022-10-04T13:58:56;5.22;;;1.88;;
67798;SDS011;54596;43.216;27.904;2022-10-04T14:18:31;7.43;;;2.60;;
67798;SDS011;54596;43.216;27.904;2022-10-04T14:21:18;5.22;;;2.33;;
67798;SDS011;54596;43.216;27.904;2022-10-04T14:24:24;5.22;;;2.22;;
67798;SDS011;54596;43.216;27.904;2022-10-04T14:35:23;7.88;;;3.20;;
67798;SDS011;54596;43.216;27.904;2022-10-04T14:49:08;7.93;;;3.05;;
67798;SDS011;54596;43.216;27.904;2022-10-04T14:51:57;12.02;;;5.50;;
67798;SDS011;54596;43.216;27.904;2022-10-04T14:54:55;7.60;;;2.80;;
67798;SDS011;54596;43.216;27.904;2022-10-04T15:00:22;6.22;;;2.90;;
67798;SDS011;54596;43.216;27.904;2022-10-04T15:08:55;7.68;;;2.70;;
67798;SDS011;54596;43.216;27.904;2022-10-04T15:11:33;8.25;;;3.97;;
67798;SDS011;54596;43.216;27.904;2022-10-04T15:14:27;15.30;;;8.40;;
67798;SDS011;54596;43.216;27.904;2022-10-04T15:17:28;8.32;;;2.55;;
67798;SDS011;54596;43.216;27.904;2022-10-04T15:22:54;9.38;;;3.85;;
67798;SDS011;54596;43.216;27.904;2022-10-04T15:25:45;10.38;;;3.20;;
67798;SDS011;54596;43.216;27.904;2022-10-04T15:29:01;9.05;;;3.78;;
67798;SDS011;54596;43.216;27.904;2022-10-04T15:34:10;6.60;;;2.58;;
67798;SDS011;54596;43.216;27.904;2022-10-04T15:42:35;6.65;;;2.80;;
67798;SDS011;54596;43.216;27.904;2022-10-04T15:58:36;9.32;;;3.13;;
67798;SDS011;54596;43.216;27.904;2022-10-04T16:04:14;11.48;;;3.55;;
67798;SDS011;54596;43.216;27.904;2022-10-04T16:12:33;15.23;;;6.00;;
67798;SDS011;54596;43.216;27.904;2022-10-04T16:15:30;22.40;;;7.97;;
67798;SDS011;54596;43.216;27.904;2022-10-04T16:25:57;23.60;;;11.98;;
67798;SDS011;54596;43.216;27.904;2022-10-04T16:31:26;29.23;;;17.38;;
67798;SDS011;54596;43.216;27.904;2022-10-04T16:49:58;17.13;;;5.93;;
67798;SDS011;54596;43.216;27.904;2022-10-04T17:09:33;24.58;;;10.00;;
67798;SDS011;54596;43.216;27.904;2022-10-04T17:17:34;17.88;;;8.00;;
67798;SDS011;54596;43.216;27.904;2022-10-04T17:20:26;16.88;;;6.32;;
67798;SDS011;54596;43.216;27.904;2022-10-04T17:25:49;12.05;;;5.80;;
67798;SDS011;54596;43.216;27.904;2022-10-04T17:28:35;13.15;;;5.30;;
67798;SDS011;54596;43.216;27.904;2022-10-04T17:37:48;23.55;;;6.85;;
67798;SDS011;54596;43.216;27.904;2022-10-04T17:48:20;20.35;;;6.50;;
67798;SDS011;54596;43.216;27.904;2022-10-04T17:51:28;18.83;;;8.88;;
67798;SDS011;54596;43.216;27.904;2022-10-04T17:54:21;20.98;;;9.63;;
67798;SDS011;54596;43.216;27.904;2022-10-04T17:57:29;23.20;;;11.63;;
67798;SDS011;54596;43.216;27.904;2022-10-04T18:00:09;21.98;;;10.38;;
67798;SDS011;54596;43.216;27.904;2022-10-04T18:05:54;21.45;;;12.90;;
67798;SDS011;54596;43.216;27.904;2022-10-04T18:14:04;20.30;;;11.10;;
67798;SDS011;54596;43.216;27.904;2022-10-04T18:16:50;23.70;;;9.95;;
67798;SDS011;54596;43.216;27.904;2022-10-04T18:19:38;22.58;;;12.73;;
67798;SDS011;54596;43.216;27.904;2022-10-04T18:24:45;20.55;;;11.98;;
67798;SDS011;54596;43.216;27.904;2022-10-04T18:27:24;20.67;;;12.40;;
67798;SDS011;54596;43.216;27.904;2022-10-04T18:34:58;23.83;;;13.70;;
67798;SDS011;54596;43.216;27.904;2022-10-04T18:37:28;25.02;;;14.38;;
67798;SDS011;54596;43.216;27.904;2022-10-04T18:42:47;25.00;;;15.10;;
67798;SDS011;54596;43.216;27.904;2022-10-04T18:45:28;26.05;;;14.25;;
67798;SDS011;54596;43.216;27.904;2022-10-04T18:47:56;23.20;;;13.85;;
67798;SDS011;54596;43.216;27.904;2022-10-04T18:50:31;26.75;;;13.38;;
67798;SDS011;54596;43.216;27.904;2022-10-04T18:55:54;27.98;;;14.18;;
67798;SDS011;54596;43.216;27.904;2022-10-04T19:04:44;25.52;;;13.10;;
67798;SDS011;54596;43.216;27.904;2022-10-04T19:07:40;41.03;;;30.35;;
67798;SDS011;54596;43.216;27.904;2022-10-04T19:10:22;45.22;;;38.08;;
67798;SDS011;54596;43.216;27.904;2022-10-04T19:16:10;22.40;;;12.88;;
67798;SDS011;54596;43.216;27.904;2022-10-04T19:21:32;25.17;;;14.18;;
67798;SDS011;54596;43.216;27.904;2022-10-04T19:27:06;41.05;;;33.75;;
67798;SDS011;54596;43.216;27.904;2022-10-04T19:30:02;45.35;;;39.47;;
67798;SDS011;54596;43.216;27.904;2022-10-04T19:32:41;47.55;;;39.17;;
67798;SDS011;54596;43.216;27.904;2022-10-04T19:40:52;29.83;;;17.10;;
67798;SDS011;54596;43.216;27.904;2022-10-04T19:48:49;24.50;;;12.90;;
67798;SDS011;54596;43.216;27.904;2022-10-04T19:54:26;32.58;;;22.20;;
67798;SDS011;54596;43.216;27.904;2022-10-04T19:56:59;34.80;;;28.23;;
67798;SDS011;54596;43.216;27.904;2022-10-04T19:59:34;44.20;;;39.08;;
67798;SDS011;54596;43.216;27.904;2022-10-04T20:02:10;46.90;;;41.90;;
67798;SDS011;54596;43.216;27.904;2022-10-04T20:04:36;44.15;;;37.33;;
67798;SDS011;54596;43.216;27.904;2022-10-04T20:07:19;32.50;;;22.20;;
67798;SDS011;54596;43.216;27.904;2022-10-04T20:12:37;21.83;;;11.38;;
67798;SDS011;54596;43.216;27.904;2022-10-04T20:17:42;19.02;;;9.35;;
67798;SDS011;54596;43.216;27.904;2022-10-04T20:20:09;13.15;;;6.53;;
67798;SDS011;54596;43.216;27.904;2022-10-04T20:30:55;16.67;;;6.53;;
67798;SDS011;54596;43.216;27.904;2022-10-04T20:39:01;16.10;;;7.78;;
67798;SDS011;54596;43.216;27.904;2022-10-04T20:47:13;19.40;;;9.50;;
67798;SDS011;54596;43.216;27.904;2022-10-04T20:49:55;20.42;;;11.10;;
67798;SDS011;54596;43.216;27.904;2022-10-04T20:52:23;22.35;;;10.70;;
67798;SDS011;54596;43.216;27.904;2022-10-04T20:54:52;19.13;;;10.40;;
67798;SDS011;54596;43.216;27.904;2022-10-04T20:57:18;17.17;;;10.20;;
67798;SDS011;54596;43.216;27.904;2022-10-04T20:59:50;16.25;;;9.75;;
67798;SDS011;54596;43.216;27.904;2022-10-04T21:02:19;19.63;;;9.88;;
67798;SDS011;54596;43.216;27.904;2022-10-04T21:04:45;19.33;;;9.93;;
67798;SDS011;54596;43.216;27.904;2022-10-04T21:07:18;17.45;;;8.93;;
67798;SDS011;54596;43.216;27.904;2022-10-04T21:09:45;18.90;;;8.80;;
67798;SDS011;54596;43.216;27.904;2022-10-04T21:17:41;17.17;;;7.83;;
67798;SDS011;54596;43.216;27.904;2022-10-04T21:20:14;16.27;;;7.13;;
67798;SDS011;54596;43.216;27.904;2022-10-04T21:23:16;16.02;;;7.68;;
67798;SDS011;54596;43.216;27.904;2022-10-04T21:25:41;13.90;;;6.90;;
67798;SDS011;54596;43.216;27.904;2022-10-04T21:28:23;15.23;;;6.95;;
67798;SDS011;54596;43.216;27.904;2022-10-04T21:30:54;13.90;;;6.43;;
67798;SDS011;54596;43.216;27.904;2022-10-04T21:33:20;13.90;;;7.32;;
67798;SDS011;54596;43.216;27.904;2022-10-04T21:35:48;15.45;;;8.30;;
67798;SDS011;54596;43.216;27.904;2022-10-04T21:38:15;21.08;;;8.50;;
67798;SDS011;54596;43.216;27.904;2022-10-04T21:40:40;15.90;;;8.90;;
67798;SDS011;54596;43.216;27.904;2022-10-04T21:43:06;15.55;;;8.02;;
67798;SDS011;54596;43.216;27.904;2022-10-04T21:45:31;15.82;;;7.55;;
67798;SDS011;54596;43.216;27.904;2022-10-04T21:47:57;15.48;;;7.80;;
67798;SDS011;54596;43.216;27.904;2022-10-04T21:50:22;17.27;;;9.65;;
67798;SDS011;54596;43.216;27.904;2022-10-04T21:52:47;22.02;;;13.00;;
67798;SDS011;54596;43.216;27.904;2022-10-04T21:55:13;22.20;;;13.27;;
67798;SDS011;54596;43.216;27.904;2022-10-04T21:57:38;18.88;;;11.98;;
67798;SDS011;54596;43.216;27.904;2022-10-04T22:00:04;18.75;;;12.52;;
67798;SDS011;54596;43.216;27.904;2022-10-04T22:02:31;22.90;;;11.80;;
67798;SDS011;54596;43.216;27.904;2022-10-04T22:04:56;22.38;;;12.10;;
67798;SDS011;54596;43.216;27.904;2022-10-04T22:07:21;21.60;;;11.70;;
67798;SDS011;54596;43.216;27.904;2022-10-04T22:09:47;22.27;;;10.82;;
67798;SDS011;54596;43.216;27.904;2022-10-04T22:12:12;21.50;;;11.95;;
67798;SDS011;54596;43.216;27.904;2022-10-04T22:14:38;21.13;;;13.13;;
67798;SDS011;54596;43.216;27.904;2022-10-04T22:17:03;23.20;;;12.20;;
67798;SDS011;54596;43.216;27.904;2022-10-04T22:19:29;22.90;;;11.75;;
67798;SDS011;54596;43.216;27.904;2022-10-04T22:21:54;19.80;;;12.18;;
67798;SDS011;54596;43.216;27.904;2022-10-04T22:24:20;22.80;;;13.73;;
67798;SDS011;54596;43.216;27.904;2022-10-04T22:26:46;23.13;;;14.95;;
67798;SDS011;54596;43.216;27.904;2022-10-04T22:29:12;22.23;;;14.02;;
67798;SDS011;54596;43.216;27.904;2022-10-04T22:31:39;23.55;;;14.20;;
67798;SDS011;54596;43.216;27.904;2022-10-04T22:34:07;26.45;;;14.05;;
67798;SDS011;54596;43.216;27.904;2022-10-04T22:36:40;24.88;;;14.80;;
67798;SDS011;54596;43.216;27.904;2022-10-04T22:41:35;21.73;;;12.65;;
67798;SDS011;54596;43.216;27.904;2022-10-04T22:44:09;21.92;;;13.73;;
67798;SDS011;54596;43.216;27.904;2022-10-04T22:46:40;21.40;;;13.40;;
67798;SDS011;54596;43.216;27.904;2022-10-04T22:49:08;21.83;;;13.93;;
67798;SDS011;54596;43.216;27.904;2022-10-04T22:51:36;23.95;;;15.60;;
67798;SDS011;54596;43.216;27.904;2022-10-04T22:54:08;24.45;;;16.20;;
67798;SDS011;54596;43.216;27.904;2022-10-04T22:56:39;23.20;;;14.23;;
67798;SDS011;54596;43.216;27.904;2022-10-04T22:59:07;19.92;;;13.50;;
67798;SDS011;54596;43.216;27.904;2022-10-04T23:01:33;20.33;;;12.77;;
67798;SDS011;54596;43.216;27.904;2022-10-04T23:03:59;21.83;;;13.38;;
67798;SDS011;54596;43.216;27.904;2022-10-04T23:06:24;20.92;;;13.85;;
67798;SDS011;54596;43.216;27.904;2022-10-04T23:08:50;27.67;;;14.77;;
67798;SDS011;54596;43.216;27.904;2022-10-04T23:11:15;24.10;;;14.93;;
67798;SDS011;54596;43.216;27.904;2022-10-04T23:13:41;28.42;;;18.48;;
67798;SDS011;54596;43.216;27.904;2022-10-04T23:16:17;28.80;;;20.00;;
67798;SDS011;54596;43.216;27.904;2022-10-04T23:18:46;39.38;;;24.50;;
67798;SDS011;54596;43.216;27.904;2022-10-04T23:21:14;37.35;;;26.83;;
67798;SDS011;54596;43.216;27.904;2022-10-04T23:23:44;41.78;;;28.52;;
67798;SDS011;54596;43.216;27.904;2022-10-04T23:26:12;41.42;;;30.23;;
67798;SDS011;54596;43.216;27.904;2022-10-04T23:28:40;47.38;;;30.45;;
67798;SDS011;54596;43.216;27.904;2022-10-04T23:31:14;45.45;;;31.92;;
67798;SDS011;54596;43.216;27.904;2022-10-04T23:33:44;50.10;;;34.22;;
67798;SDS011;54596;43.216;27.904;2022-10-04T23:36:10;47.60;;;34.53;;
67798;SDS011;54596;43.216;27.904;2022-10-04T23:38:38;52.45;;;35.42;;
67798;SDS011;54596;43.216;27.904;2022-10-04T23:41:11;49.30;;;33.55;;
67798;SDS011;54596;43.216;27.904;2022-10-04T23:43:37;48.40;;;32.92;;
67798;SDS011;54596;43.216;27.904;2022-10-04T23:46:10;52.67;;;32.63;;
67798;SDS011;54596;43.216;27.904;2022-10-04T23:48:38;49.47;;;31.92;;
67798;SDS011;54596;43.216;27.904;2022-10-04T23:51:04;49.20;;;33.47;;
67798;SDS011;54596;43.216;27.904;2022-10-04T23:53:30;49.72;;;32.85;;
67798;SDS011;54596;43.216;27.904;2022-10-04T23:55:58;47.63;;;33.80;;
67798;SDS011;54596;43.216;27.904;2022-10-04T23:58:31;47.78;;;32.78;;
